createdAt,value
2023-06-06T00:03:07.891Z,100196.19
2023-06-06T00:08:09.851Z,100200.59
2023-06-06T00:13:15.186Z,100209.16
2023-06-06T00:18:17.291Z,100198.44
2023-06-06T00:23:18.909Z,100209.53
2023-06-06T00:28:20.710Z,100214.00
2023-06-06T00:33:22.324Z,100214.31
2023-06-06T00:38:23.907Z,100217.00
2023-06-06T00:43:25.516Z,100217.81
2023-06-06T00:48:27.230Z,100210.28
2023-06-06T00:53:29.876Z,100212.97
2023-06-06T00:58:32.208Z,100202.47
2023-06-06T01:03:36.216Z,100204.81
2023-06-06T01:08:38.480Z,100207.50
2023-06-06T01:13:52.911Z,100206.56
2023-06-06T01:18:57.379Z,100216.06
2023-06-06T01:23:59.156Z,100214.25
2023-06-06T01:29:00.938Z,100221.69
2023-06-06T01:34:15.350Z,100223.59
2023-06-06T01:39:20.801Z,100219.75
2023-06-06T01:44:23.182Z,100211.63
2023-06-06T01:49:26.331Z,100224.19
2023-06-06T01:54:29.692Z,100219.34
2023-06-06T01:59:31.750Z,100217.97
2023-06-06T02:04:34.732Z,100219.94
2023-06-06T02:09:36.380Z,100224.53
2023-06-06T02:14:38.502Z,100223.22
2023-06-06T02:19:41.180Z,100234.69
2023-06-06T02:24:44.232Z,100236.22
2023-06-06T02:29:47.119Z,100236.53
2023-06-06T02:34:48.807Z,100250.66
2023-06-06T02:39:50.412Z,100264.56
2023-06-06T02:44:52.084Z,100278.16
2023-06-06T02:49:53.755Z,100264.91
2023-06-06T02:54:56.440Z,100267.81
2023-06-06T03:00:00.739Z,100263.03
2023-06-06T03:05:04.419Z,100263.41
2023-06-06T03:10:07.302Z,100264.91
2023-06-06T03:15:15.085Z,100270.41
2023-06-06T03:20:19.710Z,100268.78
2023-06-06T03:25:30.092Z,100284.72
2023-06-06T03:30:31.796Z,100286.09
2023-06-06T03:35:36.001Z,100293.03
2023-06-06T03:40:39.746Z,100301.81
2023-06-06T03:45:41.501Z,100294.13
2023-06-06T03:50:43.520Z,100305.81
2023-06-06T03:55:45.875Z,100300.63
2023-06-06T04:00:47.476Z,100301.03
2023-06-06T04:05:49.796Z,100310.84
2023-06-06T04:10:52.629Z,100302.81
2023-06-06T04:15:54.514Z,100301.69
2023-06-06T04:20:56.285Z,100317.50
2023-06-06T04:25:57.977Z,100319.38
2023-06-06T04:31:01.122Z,100325.41
2023-06-06T04:36:06.712Z,100326.19
2023-06-06T04:41:25.195Z,100313.69
2023-06-06T04:46:32.088Z,100321.91
2023-06-06T04:51:34.525Z,100321.75
2023-06-06T04:56:36.646Z,100324.28
2023-06-06T05:01:39.389Z,100318.25
2023-06-06T05:06:41.279Z,100325.50
2023-06-06T05:11:47.915Z,100327.50
2023-06-06T05:16:52.475Z,100326.72
2023-06-06T05:21:54.128Z,100327.69
2023-06-06T05:26:58.588Z,100324.16
2023-06-06T05:32:00.413Z,100331.91
2023-06-06T05:37:02.299Z,100338.59
2023-06-06T05:42:04.338Z,100347.41
2023-06-06T05:47:06.313Z,100342.22
2023-06-06T05:52:07.864Z,100339.00
2023-06-06T05:57:20.967Z,100339.38
2023-06-06T06:02:24.033Z,100347.78
2023-06-06T06:07:25.987Z,100334.81
2023-06-06T06:12:27.634Z,100338.47
2023-06-06T06:17:29.214Z,100332.41
2023-06-06T06:22:30.834Z,100329.38
2023-06-06T06:27:32.551Z,100337.94
2023-06-06T06:32:35.094Z,100332.63
2023-06-06T06:37:41.465Z,100345.88
2023-06-06T06:42:45.100Z,100343.28
2023-06-06T06:47:56.534Z,100339.69
2023-06-06T06:52:58.790Z,100338.97
2023-06-06T06:58:00.772Z,100332.38
2023-06-06T07:03:05.593Z,100336.66
2023-06-06T07:08:07.799Z,100333.28
2023-06-06T07:13:09.757Z,100355.34
2023-06-06T07:18:13.613Z,100346.72
2023-06-06T07:23:15.263Z,100361.94
2023-06-06T07:28:16.924Z,100354.59
2023-06-06T07:33:18.563Z,100352.59
2023-06-06T07:38:24.542Z,100356.69
2023-06-06T07:43:26.227Z,100348.69
2023-06-06T07:48:27.871Z,100337.69
2023-06-06T07:53:30.696Z,100334.56
2023-06-06T07:58:53.604Z,100335.00
2023-06-06T08:03:55.700Z,100321.25
2023-06-06T08:08:58.984Z,100324.66
2023-06-06T08:14:00.935Z,100328.41
2023-06-06T08:19:02.620Z,100332.75
2023-06-06T08:24:04.586Z,100326.31
2023-06-06T08:29:06.520Z,100322.19
2023-06-06T08:34:08.136Z,100333.19
2023-06-06T08:39:09.736Z,100337.91
2023-06-06T08:44:12.563Z,100330.31
2023-06-06T08:49:18.350Z,100341.63
2023-06-06T08:54:21.341Z,100331.28
2023-06-06T08:59:23.570Z,100334.13
2023-06-06T09:04:25.666Z,100335.75
2023-06-06T09:09:29.979Z,100342.78
2023-06-06T09:14:32.927Z,100343.75
2023-06-06T09:19:34.615Z,100338.66
2023-06-06T09:24:43.911Z,100336.38
2023-06-06T09:29:48.633Z,100344.78
2023-06-06T09:34:50.291Z,100339.09
2023-06-06T09:40:13.905Z,100337.31
2023-06-06T09:45:17.265Z,100355.69
2023-06-06T09:50:21.057Z,100338.03
2023-06-06T09:55:24.265Z,100345.31
2023-06-06T10:00:35.416Z,100338.78
2023-06-06T10:05:39.111Z,100343.19
2023-06-06T10:10:45.595Z,100333.69
2023-06-06T10:15:48.338Z,100335.94
2023-06-06T10:20:50.079Z,100335.31
2023-06-06T10:25:52.821Z,100329.78
2023-06-06T10:31:08.062Z,100317.13
2023-06-06T10:36:14.940Z,100328.22
2023-06-06T10:41:17.653Z,100318.81
2023-06-06T10:46:19.526Z,100320.84
2023-06-06T10:51:32.640Z,100316.28
2023-06-06T10:56:34.377Z,100316.78
2023-06-06T11:01:37.524Z,100307.56
2023-06-06T11:06:39.527Z,100302.63
2023-06-06T11:11:42.821Z,100292.22
2023-06-06T11:16:47.190Z,100291.22
2023-06-06T11:21:50.682Z,100281.16
2023-06-06T11:26:54.983Z,100296.84
2023-06-06T11:32:00.730Z,100306.91
2023-06-06T11:37:02.942Z,100296.16
2023-06-06T11:42:04.905Z,100290.34
2023-06-06T11:47:10.188Z,100293.94
2023-06-06T11:52:12.761Z,100292.13
2023-06-06T11:57:15.163Z,100284.56
2023-06-06T12:02:16.924Z,100282.28
2023-06-06T12:07:19.892Z,100285.19
2023-06-06T12:12:21.552Z,100285.22
2023-06-06T12:17:25.318Z,100281.75
2023-06-06T12:22:34.689Z,100279.41
2023-06-06T12:27:39.430Z,100279.22
2023-06-06T12:32:41.523Z,100263.28
2023-06-06T12:37:48.910Z,100263.13
2023-06-06T12:42:54.481Z,100273.88
2023-06-06T12:47:57.956Z,100273.41
2023-06-06T12:52:59.691Z,100258.59
2023-06-06T12:58:03.288Z,100270.50
2023-06-06T13:03:06.966Z,100261.50
2023-06-06T13:08:19.411Z,100267.22
2023-06-06T13:13:30.913Z,100263.41
2023-06-06T13:18:34.464Z,100265.06
2023-06-06T13:23:38.088Z,100256.91
2023-06-06T13:28:39.731Z,100261.81
2023-06-06T13:33:41.720Z,100279.03
2023-06-06T13:38:49.387Z,100275.94
2023-06-06T13:43:51.156Z,100277.31
2023-06-06T13:48:54.987Z,100273.19
2023-06-06T13:53:56.594Z,100265.66
2023-06-06T13:58:58.152Z,100257.53
2023-06-06T14:04:01.747Z,100255.47
2023-06-06T14:09:04.036Z,100252.03
2023-06-06T14:14:06.716Z,100249.84
2023-06-06T14:19:14.673Z,100243.03
2023-06-06T14:24:17.099Z,100241.25
2023-06-06T14:29:18.720Z,100234.94
2023-06-06T14:34:20.816Z,100230.97
2023-06-06T14:39:22.544Z,100232.13
2023-06-06T14:44:25.929Z,100230.22
2023-06-06T14:49:28.125Z,100228.16
2023-06-06T14:54:29.694Z,100227.75
2023-06-06T14:59:31.774Z,100221.94
2023-06-06T15:04:37.065Z,100223.56
2023-06-06T15:09:39.273Z,100216.94
2023-06-06T15:14:42.023Z,100221.56
2023-06-06T15:19:47.177Z,100226.38
2023-06-06T15:24:48.814Z,100222.44
2023-06-06T15:29:56.769Z,100212.06
2023-06-06T15:34:59.795Z,100217.53
2023-06-06T15:40:02.849Z,100211.94
2023-06-06T15:45:04.786Z,100214.13
2023-06-06T15:50:07.269Z,100205.72
2023-06-06T15:55:10.832Z,100212.81
2023-06-06T16:00:13.308Z,100210.28
2023-06-06T16:05:15.140Z,100207.19
2023-06-06T16:10:16.763Z,100195.13
2023-06-06T16:15:18.417Z,100186.91
2023-06-06T16:20:21.490Z,100193.59
2023-06-06T16:25:23.035Z,100198.28
2023-06-06T16:30:24.627Z,100181.63
2023-06-06T16:35:26.636Z,100185.28
2023-06-06T16:40:29.154Z,100187.44
2023-06-06T16:45:32.140Z,100195.19
2023-06-06T16:50:34.833Z,100193.06
2023-06-06T16:55:36.839Z,100189.44
2023-06-06T17:00:38.521Z,100189.44
2023-06-06T17:05:40.081Z,100196.72
2023-06-06T17:10:41.840Z,100193.59
2023-06-06T17:15:43.550Z,100200.34
2023-06-06T17:20:46.582Z,100193.59
2023-06-06T17:25:51.590Z,100197.06
2023-06-06T17:30:54.579Z,100204.44
2023-06-06T17:35:57.165Z,100215.47
2023-06-06T17:40:58.888Z,100219.88
2023-06-06T17:46:00.786Z,100216.06
2023-06-06T17:51:02.772Z,100222.28
2023-06-06T17:56:04.673Z,100217.41
2023-06-06T18:01:06.302Z,100214.91
2023-06-06T18:06:07.918Z,100216.97
2023-06-06T18:11:10.475Z,100217.88
2023-06-06T18:16:12.144Z,100211.25
2023-06-06T18:21:13.810Z,100222.00
2023-06-06T18:26:17.207Z,100234.84
2023-06-06T18:31:35.944Z,100229.78
2023-06-06T18:36:39.871Z,100229.63
2023-06-06T18:41:41.556Z,100227.81
2023-06-06T18:46:43.351Z,100247.13
2023-06-06T18:51:48.743Z,100243.72
2023-06-06T18:56:50.537Z,100239.28
2023-06-06T19:01:52.811Z,100240.97
2023-06-06T19:06:55.047Z,100241.69
2023-06-06T19:11:56.733Z,100249.13
2023-06-06T19:16:58.679Z,100256.16
2023-06-06T19:22:00.603Z,100254.63
2023-06-06T19:27:02.505Z,100258.28
2023-06-06T19:32:04.603Z,100264.75
2023-06-06T19:37:09.044Z,100277.56
2023-06-06T19:42:15.095Z,100273.91
2023-06-06T19:47:16.773Z,100287.44
2023-06-06T19:52:18.470Z,100285.09
2023-06-06T19:57:20.172Z,100290.44
2023-06-06T20:02:23.509Z,100290.81
2023-06-06T20:07:25.129Z,100296.09
2023-06-06T20:12:26.945Z,100288.34
2023-06-06T20:17:28.772Z,100296.69
2023-06-06T20:22:30.557Z,100301.09
2023-06-06T20:27:32.130Z,100297.78
2023-06-06T20:32:34.041Z,100303.53
2023-06-06T20:37:37.730Z,100310.97
2023-06-06T20:42:39.418Z,100300.94
2023-06-06T20:47:42.006Z,100309.22
2023-06-06T20:52:43.908Z,100319.97
2023-06-06T20:57:45.801Z,100326.56
2023-06-06T21:02:48.537Z,100327.63
2023-06-06T21:07:50.864Z,100333.25
2023-06-06T21:12:52.584Z,100327.41
2023-06-06T21:17:54.209Z,100330.75
2023-06-06T21:22:55.784Z,100342.03
2023-06-06T21:27:57.497Z,100330.06
2023-06-06T21:33:01.480Z,100324.69
2023-06-06T21:38:04.578Z,100324.81
2023-06-06T21:43:06.378Z,100317.25
2023-06-06T21:48:07.996Z,100322.25
2023-06-06T21:53:09.574Z,100320.00
2023-06-06T21:58:11.375Z,100319.38
2023-06-06T22:03:13.196Z,100322.25
2023-06-06T22:08:14.826Z,100322.16
2023-06-06T22:13:16.539Z,100311.53
2023-06-06T22:18:18.374Z,100317.91
2023-06-06T22:23:20.034Z,100316.88
2023-06-06T22:28:22.057Z,100317.78
2023-06-06T22:33:23.737Z,100315.34
2023-06-06T22:38:25.688Z,100324.41
2023-06-06T22:43:27.264Z,100325.97
2023-06-06T22:48:28.880Z,100323.03
2023-06-06T22:53:31.507Z,100321.75
2023-06-06T22:58:33.152Z,100315.84
2023-06-06T23:03:35.239Z,100319.78
2023-06-06T23:08:36.999Z,100302.50
2023-06-06T23:13:40.428Z,100305.66
2023-06-06T23:18:42.295Z,100310.22
2023-06-06T23:23:44.637Z,100312.31
2023-06-06T23:28:46.265Z,100321.28
2023-06-06T23:33:48.038Z,100323.81
2023-06-06T23:38:49.649Z,100318.88
2023-06-06T23:43:51.322Z,100322.06
2023-06-06T23:48:52.911Z,100316.09
2023-06-06T23:53:54.562Z,100325.28
2023-06-06T23:58:56.130Z,100312.44
